sensor_id;sensor_type;location;lat;lon;timestamp;P1;durP1;ratioP1;P2;durP2;ratioP2
79691;SDS011;69158;55.592;37.610;2023-04-29T00:02:20;7.38;;;3.78;;
79691;SDS011;69158;55.592;37.610;2023-04-29T00:05:06;7.00;;;3.90;;
79691;SDS011;69158;55.592;37.610;2023-04-29T00:07:52;6.20;;;3.08;;
79691;SDS011;69158;55.592;37.610;2023-04-29T00:10:38;6.55;;;3.55;;
79691;SDS011;69158;55.592;37.610;2023-04-29T00:13:25;5.80;;;2.78;;
79691;SDS011;69158;55.592;37.610;2023-04-29T00:16:10;6.45;;;3.50;;
79691;SDS011;69158;55.592;37.610;2023-04-29T00:18:56;6.95;;;4.05;;
79691;SDS011;69158;55.592;37.610;2023-04-29T00:21:43;7.85;;;3.92;;
79691;SDS011;69158;55.592;37.610;2023-04-29T00:24:29;8.07;;;3.35;;
79691;SDS011;69158;55.592;37.610;2023-04-29T00:27:15;6.55;;;3.35;;
79691;SDS011;69158;55.592;37.610;2023-04-29T00:30:02;6.20;;;2.72;;
79691;SDS011;69158;55.592;37.610;2023-04-29T00:32:48;6.53;;;3.28;;
79691;SDS011;69158;55.592;37.610;2023-04-29T00:35:35;6.80;;;3.50;;
79691;SDS011;69158;55.592;37.610;2023-04-29T00:38:21;6.15;;;3.00;;
79691;SDS011;69158;55.592;37.610;2023-04-29T00:41:07;6.80;;;3.15;;
79691;SDS011;69158;55.592;37.610;2023-04-29T00:43:53;7.50;;;2.95;;
79691;SDS011;69158;55.592;37.610;2023-04-29T00:46:38;6.32;;;3.08;;
79691;SDS011;69158;55.592;37.610;2023-04-29T00:49:24;6.07;;;2.75;;
79691;SDS011;69158;55.592;37.610;2023-04-29T00:52:12;7.03;;;3.63;;
79691;SDS011;69158;55.592;37.610;2023-04-29T00:54:59;6.40;;;2.95;;
79691;SDS011;69158;55.592;37.610;2023-04-29T00:57:46;7.55;;;3.92;;
79691;SDS011;69158;55.592;37.610;2023-04-29T01:00:34;7.00;;;3.08;;
79691;SDS011;69158;55.592;37.610;2023-04-29T01:03:20;7.00;;;3.83;;
79691;SDS011;69158;55.592;37.610;2023-04-29T01:06:08;6.57;;;2.90;;
79691;SDS011;69158;55.592;37.610;2023-04-29T01:15:14;6.93;;;2.22;;
79691;SDS011;69158;55.592;37.610;2023-04-29T01:18:08;6.30;;;2.78;;
79691;SDS011;69158;55.592;37.610;2023-04-29T01:20:57;6.22;;;2.63;;
79691;SDS011;69158;55.592;37.610;2023-04-29T01:23:44;7.40;;;2.45;;
79691;SDS011;69158;55.592;37.610;2023-04-29T01:26:30;7.75;;;2.80;;
79691;SDS011;69158;55.592;37.610;2023-04-29T01:30:04;6.20;;;2.88;;
79691;SDS011;69158;55.592;37.610;2023-04-29T01:32:42;5.75;;;2.53;;
79691;SDS011;69158;55.592;37.610;2023-04-29T01:35:59;6.70;;;3.05;;
79691;SDS011;69158;55.592;37.610;2023-04-29T01:39:13;5.50;;;2.55;;
79691;SDS011;69158;55.592;37.610;2023-04-29T01:42:09;7.30;;;2.03;;
79691;SDS011;69158;55.592;37.610;2023-04-29T01:44:59;5.82;;;2.38;;
79691;SDS011;69158;55.592;37.610;2023-04-29T01:47:50;5.53;;;2.17;;
79691;SDS011;69158;55.592;37.610;2023-04-29T01:50:40;5.63;;;2.42;;
79691;SDS011;69158;55.592;37.610;2023-04-29T01:53:26;6.00;;;2.72;;
79691;SDS011;69158;55.592;37.610;2023-04-29T01:56:12;6.47;;;3.40;;
79691;SDS011;69158;55.592;37.610;2023-04-29T01:58:58;5.90;;;2.72;;
79691;SDS011;69158;55.592;37.610;2023-04-29T02:01:43;5.60;;;1.90;;
79691;SDS011;69158;55.592;37.610;2023-04-29T02:04:29;5.93;;;2.75;;
79691;SDS011;69158;55.592;37.610;2023-04-29T02:07:18;6.45;;;3.03;;
79691;SDS011;69158;55.592;37.610;2023-04-29T02:10:04;5.68;;;2.67;;
79691;SDS011;69158;55.592;37.610;2023-04-29T02:12:50;7.40;;;2.92;;
79691;SDS011;69158;55.592;37.610;2023-04-29T02:15:36;7.80;;;3.55;;
79691;SDS011;69158;55.592;37.610;2023-04-29T02:18:22;7.65;;;3.28;;
79691;SDS011;69158;55.592;37.610;2023-04-29T02:24:19;7.57;;;3.63;;
79691;SDS011;69158;55.592;37.610;2023-04-29T02:27:05;6.90;;;4.07;;
79691;SDS011;69158;55.592;37.610;2023-04-29T02:29:51;6.43;;;3.55;;
79691;SDS011;69158;55.592;37.610;2023-04-29T02:32:37;9.13;;;4.40;;
79691;SDS011;69158;55.592;37.610;2023-04-29T02:35:23;7.50;;;3.15;;
79691;SDS011;69158;55.592;37.610;2023-04-29T02:38:09;6.00;;;2.25;;
79691;SDS011;69158;55.592;37.610;2023-04-29T02:40:56;6.43;;;3.55;;
79691;SDS011;69158;55.592;37.610;2023-04-29T02:43:47;5.97;;;2.70;;
79691;SDS011;69158;55.592;37.610;2023-04-29T02:46:36;6.60;;;3.05;;
79691;SDS011;69158;55.592;37.610;2023-04-29T02:49:23;6.53;;;2.83;;
79691;SDS011;69158;55.592;37.610;2023-04-29T02:52:10;7.43;;;2.97;;
79691;SDS011;69158;55.592;37.610;2023-04-29T02:54:57;6.30;;;3.28;;
79691;SDS011;69158;55.592;37.610;2023-04-29T02:57:43;6.47;;;3.10;;
79691;SDS011;69158;55.592;37.610;2023-04-29T03:00:28;5.85;;;2.13;;
79691;SDS011;69158;55.592;37.610;2023-04-29T03:03:14;6.07;;;3.13;;
79691;SDS011;69158;55.592;37.610;2023-04-29T03:06:01;5.78;;;2.33;;
79691;SDS011;69158;55.592;37.610;2023-04-29T03:08:47;5.13;;;2.25;;
79691;SDS011;69158;55.592;37.610;2023-04-29T03:11:36;5.65;;;2.53;;
79691;SDS011;69158;55.592;37.610;2023-04-29T03:14:36;5.78;;;2.45;;
79691;SDS011;69158;55.592;37.610;2023-04-29T03:17:23;5.18;;;2.13;;
79691;SDS011;69158;55.592;37.610;2023-04-29T03:20:09;5.05;;;2.10;;
79691;SDS011;69158;55.592;37.610;2023-04-29T03:22:55;5.05;;;1.58;;
79691;SDS011;69158;55.592;37.610;2023-04-29T03:25:41;7.32;;;3.80;;
79691;SDS011;69158;55.592;37.610;2023-04-29T03:28:27;5.50;;;2.15;;
79691;SDS011;69158;55.592;37.610;2023-04-29T03:31:13;5.10;;;2.40;;
79691;SDS011;69158;55.592;37.610;2023-04-29T03:34:02;6.90;;;1.83;;
79691;SDS011;69158;55.592;37.610;2023-04-29T03:36:48;8.55;;;3.00;;
79691;SDS011;69158;55.592;37.610;2023-04-29T03:39:35;4.85;;;1.65;;
79691;SDS011;69158;55.592;37.610;2023-04-29T03:42:22;5.88;;;2.65;;
79691;SDS011;69158;55.592;37.610;2023-04-29T03:45:09;5.78;;;2.33;;
79691;SDS011;69158;55.592;37.610;2023-04-29T03:50:51;6.38;;;2.80;;
79691;SDS011;69158;55.592;37.610;2023-04-29T03:53:37;5.60;;;2.42;;
79691;SDS011;69158;55.592;37.610;2023-04-29T03:56:24;5.78;;;2.58;;
79691;SDS011;69158;55.592;37.610;2023-04-29T03:59:10;6.15;;;2.33;;
79691;SDS011;69158;55.592;37.610;2023-04-29T04:01:56;5.65;;;3.35;;
79691;SDS011;69158;55.592;37.610;2023-04-29T04:04:42;6.55;;;2.67;;
79691;SDS011;69158;55.592;37.610;2023-04-29T04:07:28;5.43;;;2.67;;
79691;SDS011;69158;55.592;37.610;2023-04-29T04:10:14;5.57;;;2.20;;
79691;SDS011;69158;55.592;37.610;2023-04-29T04:13:00;6.00;;;2.17;;
79691;SDS011;69158;55.592;37.610;2023-04-29T04:15:49;5.47;;;2.35;;
79691;SDS011;69158;55.592;37.610;2023-04-29T04:18:36;5.32;;;2.10;;
79691;SDS011;69158;55.592;37.610;2023-04-29T04:21:23;4.50;;;1.50;;
79691;SDS011;69158;55.592;37.610;2023-04-29T04:24:09;4.82;;;1.67;;
79691;SDS011;69158;55.592;37.610;2023-04-29T04:26:55;5.18;;;1.48;;
79691;SDS011;69158;55.592;37.610;2023-04-29T04:29:41;5.13;;;2.30;;
79691;SDS011;69158;55.592;37.610;2023-04-29T04:32:27;4.97;;;2.28;;
79691;SDS011;69158;55.592;37.610;2023-04-29T04:35:13;5.55;;;1.63;;
79691;SDS011;69158;55.592;37.610;2023-04-29T04:37:59;4.93;;;2.10;;
79691;SDS011;69158;55.592;37.610;2023-04-29T04:40:45;4.93;;;2.15;;
79691;SDS011;69158;55.592;37.610;2023-04-29T04:43:31;6.30;;;2.47;;
79691;SDS011;69158;55.592;37.610;2023-04-29T04:46:17;4.63;;;1.63;;
79691;SDS011;69158;55.592;37.610;2023-04-29T04:49:03;5.30;;;2.10;;
79691;SDS011;69158;55.592;37.610;2023-04-29T04:51:49;5.20;;;2.15;;
79691;SDS011;69158;55.592;37.610;2023-04-29T04:54:36;5.05;;;1.95;;
79691;SDS011;69158;55.592;37.610;2023-04-29T04:57:22;6.57;;;2.30;;
79691;SDS011;69158;55.592;37.610;2023-04-29T05:00:11;5.70;;;2.25;;
79691;SDS011;69158;55.592;37.610;2023-04-29T05:02:57;5.82;;;2.65;;
79691;SDS011;69158;55.592;37.610;2023-04-29T05:05:43;6.68;;;3.85;;
79691;SDS011;69158;55.592;37.610;2023-04-29T05:08:30;6.70;;;3.00;;
79691;SDS011;69158;55.592;37.610;2023-04-29T05:11:17;5.78;;;2.65;;
79691;SDS011;69158;55.592;37.610;2023-04-29T05:14:04;7.25;;;2.03;;
79691;SDS011;69158;55.592;37.610;2023-04-29T05:16:50;6.25;;;1.98;;
79691;SDS011;69158;55.592;37.610;2023-04-29T05:19:38;6.32;;;2.58;;
79691;SDS011;69158;55.592;37.610;2023-04-29T05:25:14;6.65;;;2.47;;
79691;SDS011;69158;55.592;37.610;2023-04-29T05:28:02;5.68;;;2.17;;
79691;SDS011;69158;55.592;37.610;2023-04-29T05:30:51;7.20;;;3.75;;
79691;SDS011;69158;55.592;37.610;2023-04-29T05:33:39;6.53;;;2.33;;
79691;SDS011;69158;55.592;37.610;2023-04-29T05:36:25;7.53;;;4.47;;
79691;SDS011;69158;55.592;37.610;2023-04-29T05:39:13;6.25;;;2.20;;
79691;SDS011;69158;55.592;37.610;2023-04-29T05:42:09;8.02;;;3.55;;
79691;SDS011;69158;55.592;37.610;2023-04-29T05:44:56;7.78;;;3.65;;
79691;SDS011;69158;55.592;37.610;2023-04-29T05:47:43;5.82;;;2.72;;
79691;SDS011;69158;55.592;37.610;2023-04-29T05:50:31;7.68;;;2.42;;
79691;SDS011;69158;55.592;37.610;2023-04-29T05:53:23;6.10;;;2.70;;
79691;SDS011;69158;55.592;37.610;2023-04-29T05:56:09;6.53;;;2.65;;
79691;SDS011;69158;55.592;37.610;2023-04-29T05:58:56;8.15;;;3.00;;
79691;SDS011;69158;55.592;37.610;2023-04-29T06:01:43;9.05;;;3.65;;
79691;SDS011;69158;55.592;37.610;2023-04-29T06:04:29;5.60;;;2.42;;
79691;SDS011;69158;55.592;37.610;2023-04-29T06:07:16;10.45;;;2.83;;
79691;SDS011;69158;55.592;37.610;2023-04-29T06:10:03;7.07;;;3.15;;
79691;SDS011;69158;55.592;37.610;2023-04-29T06:12:50;6.30;;;2.85;;
79691;SDS011;69158;55.592;37.610;2023-04-29T06:15:36;8.35;;;4.15;;
79691;SDS011;69158;55.592;37.610;2023-04-29T06:18:22;7.10;;;3.05;;
79691;SDS011;69158;55.592;37.610;2023-04-29T06:21:08;7.47;;;3.22;;
79691;SDS011;69158;55.592;37.610;2023-04-29T06:23:54;7.72;;;4.50;;
79691;SDS011;69158;55.592;37.610;2023-04-29T06:26:43;7.65;;;3.88;;
79691;SDS011;69158;55.592;37.610;2023-04-29T06:29:30;7.10;;;4.28;;
79691;SDS011;69158;55.592;37.610;2023-04-29T06:32:16;7.72;;;5.15;;
79691;SDS011;69158;55.592;37.610;2023-04-29T06:35:02;9.73;;;4.90;;
79691;SDS011;69158;55.592;37.610;2023-04-29T06:37:53;8.32;;;5.45;;
79691;SDS011;69158;55.592;37.610;2023-04-29T06:40:41;9.80;;;4.45;;
79691;SDS011;69158;55.592;37.610;2023-04-29T06:43:28;9.27;;;5.30;;
79691;SDS011;69158;55.592;37.610;2023-04-29T06:46:22;7.53;;;3.40;;
79691;SDS011;69158;55.592;37.610;2023-04-29T06:49:07;10.68;;;6.55;;
79691;SDS011;69158;55.592;37.610;2023-04-29T06:51:54;7.40;;;4.10;;
79691;SDS011;69158;55.592;37.610;2023-04-29T06:54:41;7.25;;;3.40;;
79691;SDS011;69158;55.592;37.610;2023-04-29T06:57:28;8.93;;;3.25;;
79691;SDS011;69158;55.592;37.610;2023-04-29T07:00:14;7.90;;;4.63;;
79691;SDS011;69158;55.592;37.610;2023-04-29T07:03:02;6.93;;;3.88;;
79691;SDS011;69158;55.592;37.610;2023-04-29T07:05:50;6.93;;;3.35;;
79691;SDS011;69158;55.592;37.610;2023-04-29T07:08:36;7.57;;;4.60;;
79691;SDS011;69158;55.592;37.610;2023-04-29T07:11:22;7.30;;;3.72;;
79691;SDS011;69158;55.592;37.610;2023-04-29T07:14:09;7.47;;;3.90;;
79691;SDS011;69158;55.592;37.610;2023-04-29T07:16:55;6.88;;;3.45;;
79691;SDS011;69158;55.592;37.610;2023-04-29T07:19:41;8.07;;;5.30;;
79691;SDS011;69158;55.592;37.610;2023-04-29T07:22:29;8.88;;;4.82;;
79691;SDS011;69158;55.592;37.610;2023-04-29T07:25:15;9.18;;;6.00;;
79691;SDS011;69158;55.592;37.610;2023-04-29T07:28:01;8.65;;;6.43;;
79691;SDS011;69158;55.592;37.610;2023-04-29T07:30:50;8.85;;;5.00;;
79691;SDS011;69158;55.592;37.610;2023-04-29T07:33:36;8.38;;;4.47;;
79691;SDS011;69158;55.592;37.610;2023-04-29T07:36:23;7.45;;;4.20;;
79691;SDS011;69158;55.592;37.610;2023-04-29T07:39:09;7.88;;;4.65;;
79691;SDS011;69158;55.592;37.610;2023-04-29T07:41:56;8.45;;;5.68;;
79691;SDS011;69158;55.592;37.610;2023-04-29T07:44:44;7.85;;;5.05;;
79691;SDS011;69158;55.592;37.610;2023-04-29T07:47:30;10.93;;;5.30;;
79691;SDS011;69158;55.592;37.610;2023-04-29T07:50:16;7.45;;;3.65;;
79691;SDS011;69158;55.592;37.610;2023-04-29T07:53:03;7.55;;;3.40;;
79691;SDS011;69158;55.592;37.610;2023-04-29T07:55:51;8.65;;;5.97;;
79691;SDS011;69158;55.592;37.610;2023-04-29T07:58:38;8.50;;;3.00;;
79691;SDS011;69158;55.592;37.610;2023-04-29T08:01:24;8.02;;;3.13;;
79691;SDS011;69158;55.592;37.610;2023-04-29T08:04:11;6.85;;;2.72;;
79691;SDS011;69158;55.592;37.610;2023-04-29T08:06:57;7.43;;;3.00;;
79691;SDS011;69158;55.592;37.610;2023-04-29T08:09:43;7.72;;;3.70;;
79691;SDS011;69158;55.592;37.610;2023-04-29T08:12:32;7.03;;;3.67;;
79691;SDS011;69158;55.592;37.610;2023-04-29T08:15:20;6.97;;;3.55;;
79691;SDS011;69158;55.592;37.610;2023-04-29T08:18:11;6.93;;;2.72;;
79691;SDS011;69158;55.592;37.610;2023-04-29T08:20:57;6.47;;;3.40;;
79691;SDS011;69158;55.592;37.610;2023-04-29T08:23:43;7.38;;;3.65;;
79691;SDS011;69158;55.592;37.610;2023-04-29T08:26:33;9.27;;;4.90;;
79691;SDS011;69158;55.592;37.610;2023-04-29T08:29:19;7.32;;;2.80;;
79691;SDS011;69158;55.592;37.610;2023-04-29T08:32:08;8.98;;;3.78;;
79691;SDS011;69158;55.592;37.610;2023-04-29T08:34:54;8.30;;;3.75;;
79691;SDS011;69158;55.592;37.610;2023-04-29T08:37:41;9.90;;;5.57;;
79691;SDS011;69158;55.592;37.610;2023-04-29T08:40:48;7.72;;;2.80;;
79691;SDS011;69158;55.592;37.610;2023-04-29T08:43:38;6.25;;;3.42;;
79691;SDS011;69158;55.592;37.610;2023-04-29T08:46:27;6.72;;;4.13;;
79691;SDS011;69158;55.592;37.610;2023-04-29T08:49:16;7.70;;;3.70;;
79691;SDS011;69158;55.592;37.610;2023-04-29T08:52:05;10.57;;;3.70;;
79691;SDS011;69158;55.592;37.610;2023-04-29T08:54:51;6.80;;;3.38;;
79691;SDS011;69158;55.592;37.610;2023-04-29T08:57:37;7.72;;;3.70;;
79691;SDS011;69158;55.592;37.610;2023-04-29T09:00:25;7.07;;;2.42;;
79691;SDS011;69158;55.592;37.610;2023-04-29T09:06:14;6.93;;;2.38;;
79691;SDS011;69158;55.592;37.610;2023-04-29T09:09:07;5.78;;;1.90;;
79691;SDS011;69158;55.592;37.610;2023-04-29T09:11:59;6.43;;;2.55;;
79691;SDS011;69158;55.592;37.610;2023-04-29T09:14:50;8.40;;;4.18;;
79691;SDS011;69158;55.592;37.610;2023-04-29T09:17:45;6.15;;;3.08;;
79691;SDS011;69158;55.592;37.610;2023-04-29T09:20:32;8.20;;;2.92;;
79691;SDS011;69158;55.592;37.610;2023-04-29T09:23:35;8.13;;;3.40;;
79691;SDS011;69158;55.592;37.610;2023-04-29T09:26:24;6.05;;;3.03;;
79691;SDS011;69158;55.592;37.610;2023-04-29T09:29:12;9.27;;;5.30;;
79691;SDS011;69158;55.592;37.610;2023-04-29T09:32:00;6.55;;;3.17;;
79691;SDS011;69158;55.592;37.610;2023-04-29T09:38:25;8.02;;;3.03;;
79691;SDS011;69158;55.592;37.610;2023-04-29T09:41:21;6.35;;;2.17;;
79691;SDS011;69158;55.592;37.610;2023-04-29T09:44:08;5.53;;;2.10;;
79691;SDS011;69158;55.592;37.610;2023-04-29T09:46:59;7.38;;;2.70;;
79691;SDS011;69158;55.592;37.610;2023-04-29T09:49:52;6.78;;;2.00;;
79691;SDS011;69158;55.592;37.610;2023-04-29T09:52:39;6.28;;;2.83;;
79691;SDS011;69158;55.592;37.610;2023-04-29T09:55:28;10.38;;;5.70;;
79691;SDS011;69158;55.592;37.610;2023-04-29T09:58:27;9.10;;;3.42;;
79691;SDS011;69158;55.592;37.610;2023-04-29T10:01:22;7.32;;;2.75;;
79691;SDS011;69158;55.592;37.610;2023-04-29T10:04:11;5.93;;;2.35;;
79691;SDS011;69158;55.592;37.610;2023-04-29T10:07:00;8.70;;;2.72;;
79691;SDS011;69158;55.592;37.610;2023-04-29T10:09:47;6.30;;;2.88;;
79691;SDS011;69158;55.592;37.610;2023-04-29T10:12:36;7.35;;;3.50;;
79691;SDS011;69158;55.592;37.610;2023-04-29T10:18:20;8.60;;;2.45;;
79691;SDS011;69158;55.592;37.610;2023-04-29T10:21:14;6.07;;;3.00;;
79691;SDS011;69158;55.592;37.610;2023-04-29T10:24:14;6.70;;;2.55;;
79691;SDS011;69158;55.592;37.610;2023-04-29T10:27:07;6.78;;;2.53;;
79691;SDS011;69158;55.592;37.610;2023-04-29T10:29:57;5.15;;;2.38;;
79691;SDS011;69158;55.592;37.610;2023-04-29T10:32:45;6.93;;;1.98;;
79691;SDS011;69158;55.592;37.610;2023-04-29T10:35:32;7.22;;;2.20;;
79691;SDS011;69158;55.592;37.610;2023-04-29T10:38:23;7.53;;;2.00;;
79691;SDS011;69158;55.592;37.610;2023-04-29T10:41:15;7.80;;;3.50;;
79691;SDS011;69158;55.592;37.610;2023-04-29T10:44:05;6.07;;;2.42;;
79691;SDS011;69158;55.592;37.610;2023-04-29T10:47:16;7.00;;;3.08;;
79691;SDS011;69158;55.592;37.610;2023-04-29T10:50:03;8.00;;;2.80;;
79691;SDS011;69158;55.592;37.610;2023-04-29T10:52:50;7.15;;;2.10;;
79691;SDS011;69158;55.592;37.610;2023-04-29T10:55:36;5.53;;;2.00;;
79691;SDS011;69158;55.592;37.610;2023-04-29T11:01:41;7.00;;;3.88;;
79691;SDS011;69158;55.592;37.610;2023-04-29T11:04:28;9.60;;;3.35;;
79691;SDS011;69158;55.592;37.610;2023-04-29T11:07:25;6.63;;;2.40;;
79691;SDS011;69158;55.592;37.610;2023-04-29T11:10:12;8.77;;;3.97;;
79691;SDS011;69158;55.592;37.610;2023-04-29T11:16:11;9.60;;;3.00;;
79691;SDS011;69158;55.592;37.610;2023-04-29T11:19:04;8.98;;;3.08;;
79691;SDS011;69158;55.592;37.610;2023-04-29T11:22:07;6.70;;;2.60;;
79691;SDS011;69158;55.592;37.610;2023-04-29T11:25:09;7.38;;;2.83;;
79691;SDS011;69158;55.592;37.610;2023-04-29T11:27:56;5.75;;;3.03;;
79691;SDS011;69158;55.592;37.610;2023-04-29T11:30:44;6.57;;;3.40;;
79691;SDS011;69158;55.592;37.610;2023-04-29T11:33:31;6.57;;;2.50;;
79691;SDS011;69158;55.592;37.610;2023-04-29T11:36:18;6.82;;;2.50;;
79691;SDS011;69158;55.592;37.610;2023-04-29T11:39:04;5.97;;;2.45;;
79691;SDS011;69158;55.592;37.610;2023-04-29T11:41:50;6.13;;;2.30;;
79691;SDS011;69158;55.592;37.610;2023-04-29T11:44:36;8.75;;;2.60;;
79691;SDS011;69158;55.592;37.610;2023-04-29T11:47:26;5.93;;;2.72;;
79691;SDS011;69158;55.592;37.610;2023-04-29T11:50:14;6.72;;;2.80;;
79691;SDS011;69158;55.592;37.610;2023-04-29T11:53:02;8.18;;;4.50;;
79691;SDS011;69158;55.592;37.610;2023-04-29T11:55:48;9.25;;;4.75;;
79691;SDS011;69158;55.592;37.610;2023-04-29T11:58:34;7.97;;;2.92;;
79691;SDS011;69158;55.592;37.610;2023-04-29T12:01:20;9.80;;;2.70;;
79691;SDS011;69158;55.592;37.610;2023-04-29T12:04:06;5.40;;;1.95;;
79691;SDS011;69158;55.592;37.610;2023-04-29T12:06:52;5.93;;;2.40;;
79691;SDS011;69158;55.592;37.610;2023-04-29T12:09:42;5.68;;;2.25;;
79691;SDS011;69158;55.592;37.610;2023-04-29T12:12:29;10.73;;;2.53;;
79691;SDS011;69158;55.592;37.610;2023-04-29T12:15:19;6.75;;;2.55;;
79691;SDS011;69158;55.592;37.610;2023-04-29T12:18:05;6.68;;;3.35;;
79691;SDS011;69158;55.592;37.610;2023-04-29T12:20:51;7.57;;;2.25;;
79691;SDS011;69158;55.592;37.610;2023-04-29T12:23:40;8.18;;;3.53;;
79691;SDS011;69158;55.592;37.610;2023-04-29T12:26:26;6.47;;;2.28;;
79691;SDS011;69158;55.592;37.610;2023-04-29T12:29:13;6.18;;;1.77;;
79691;SDS011;69158;55.592;37.610;2023-04-29T12:31:59;8.57;;;2.72;;
79691;SDS011;69158;55.592;37.610;2023-04-29T12:34:45;9.65;;;2.47;;
79691;SDS011;69158;55.592;37.610;2023-04-29T12:37:32;7.28;;;2.03;;
79691;SDS011;69158;55.592;37.610;2023-04-29T12:40:18;7.13;;;3.15;;
79691;SDS011;69158;55.592;37.610;2023-04-29T12:43:09;6.97;;;1.90;;
79691;SDS011;69158;55.592;37.610;2023-04-29T12:46:02;6.00;;;2.22;;
79691;SDS011;69158;55.592;37.610;2023-04-29T12:48:49;7.43;;;2.78;;
79691;SDS011;69158;55.592;37.610;2023-04-29T12:51:35;8.10;;;1.95;;
79691;SDS011;69158;55.592;37.610;2023-04-29T12:54:21;6.43;;;3.88;;
79691;SDS011;69158;55.592;37.610;2023-04-29T12:57:07;6.03;;;2.72;;
79691;SDS011;69158;55.592;37.610;2023-04-29T12:59:55;7.30;;;2.65;;
79691;SDS011;69158;55.592;37.610;2023-04-29T13:02:41;7.35;;;2.75;;
79691;SDS011;69158;55.592;37.610;2023-04-29T13:05:27;8.65;;;2.38;;
79691;SDS011;69158;55.592;37.610;2023-04-29T13:08:13;5.97;;;2.05;;
79691;SDS011;69158;55.592;37.610;2023-04-29T13:10:59;7.22;;;2.13;;
79691;SDS011;69158;55.592;37.610;2023-04-29T13:13:45;6.03;;;2.10;;
79691;SDS011;69158;55.592;37.610;2023-04-29T13:16:31;5.90;;;2.22;;
79691;SDS011;69158;55.592;37.610;2023-04-29T13:19:18;7.57;;;2.22;;
79691;SDS011;69158;55.592;37.610;2023-04-29T13:22:04;6.82;;;1.90;;
79691;SDS011;69158;55.592;37.610;2023-04-29T13:24:51;6.30;;;1.75;;
79691;SDS011;69158;55.592;37.610;2023-04-29T13:27:37;7.18;;;1.65;;
79691;SDS011;69158;55.592;37.610;2023-04-29T13:30:23;8.65;;;2.40;;
79691;SDS011;69158;55.592;37.610;2023-04-29T13:33:09;6.25;;;2.70;;
79691;SDS011;69158;55.592;37.610;2023-04-29T13:35:55;6.38;;;2.30;;
79691;SDS011;69158;55.592;37.610;2023-04-29T13:38:41;8.65;;;1.88;;
79691;SDS011;69158;55.592;37.610;2023-04-29T13:41:28;6.35;;;2.15;;
79691;SDS011;69158;55.592;37.610;2023-04-29T13:44:14;9.52;;;2.10;;
79691;SDS011;69158;55.592;37.610;2023-04-29T13:47:01;5.97;;;1.85;;
79691;SDS011;69158;55.592;37.610;2023-04-29T13:49:47;6.30;;;1.88;;
79691;SDS011;69158;55.592;37.610;2023-04-29T13:52:34;7.82;;;2.53;;
79691;SDS011;69158;55.592;37.610;2023-04-29T13:55:19;5.75;;;1.92;;
79691;SDS011;69158;55.592;37.610;2023-04-29T13:58:05;7.97;;;1.90;;
79691;SDS011;69158;55.592;37.610;2023-04-29T14:00:52;8.98;;;2.65;;
79691;SDS011;69158;55.592;37.610;2023-04-29T14:03:39;8.00;;;1.60;;
79691;SDS011;69158;55.592;37.610;2023-04-29T14:06:25;5.70;;;1.60;;
79691;SDS011;69158;55.592;37.610;2023-04-29T14:09:10;5.05;;;1.65;;
79691;SDS011;69158;55.592;37.610;2023-04-29T14:11:56;7.35;;;2.80;;
79691;SDS011;69158;55.592;37.610;2023-04-29T14:14:42;5.97;;;1.70;;
79691;SDS011;69158;55.592;37.610;2023-04-29T14:17:29;6.60;;;1.50;;
79691;SDS011;69158;55.592;37.610;2023-04-29T14:20:15;8.57;;;1.80;;
79691;SDS011;69158;55.592;37.610;2023-04-29T14:23:00;8.32;;;2.33;;
79691;SDS011;69158;55.592;37.610;2023-04-29T14:25:47;6.28;;;2.10;;
79691;SDS011;69158;55.592;37.610;2023-04-29T14:28:33;10.68;;;1.75;;
79691;SDS011;69158;55.592;37.610;2023-04-29T14:31:20;8.00;;;1.95;;
79691;SDS011;69158;55.592;37.610;2023-04-29T14:34:06;7.63;;;1.70;;
79691;SDS011;69158;55.592;37.610;2023-04-29T14:36:52;7.60;;;1.65;;
79691;SDS011;69158;55.592;37.610;2023-04-29T14:39:38;6.78;;;2.40;;
79691;SDS011;69158;55.592;37.610;2023-04-29T14:42:24;7.13;;;1.70;;
79691;SDS011;69158;55.592;37.610;2023-04-29T14:45:10;7.00;;;1.98;;
79691;SDS011;69158;55.592;37.610;2023-04-29T14:47:56;5.32;;;1.45;;
79691;SDS011;69158;55.592;37.610;2023-04-29T14:50:42;6.65;;;2.10;;
79691;SDS011;69158;55.592;37.610;2023-04-29T14:53:29;6.07;;;1.42;;
79691;SDS011;69158;55.592;37.610;2023-04-29T14:56:15;6.35;;;1.98;;
79691;SDS011;69158;55.592;37.610;2023-04-29T14:59:02;8.50;;;1.73;;
79691;SDS011;69158;55.592;37.610;2023-04-29T15:01:48;6.45;;;2.25;;
79691;SDS011;69158;55.592;37.610;2023-04-29T15:04:34;4.93;;;1.30;;
79691;SDS011;69158;55.592;37.610;2023-04-29T15:07:20;6.85;;;1.60;;
79691;SDS011;69158;55.592;37.610;2023-04-29T15:10:07;6.38;;;1.73;;
79691;SDS011;69158;55.592;37.610;2023-04-29T15:12:56;7.32;;;1.45;;
79691;SDS011;69158;55.592;37.610;2023-04-29T15:15:42;7.32;;;2.33;;
79691;SDS011;69158;55.592;37.610;2023-04-29T15:18:28;7.50;;;2.30;;
79691;SDS011;69158;55.592;37.610;2023-04-29T15:21:14;7.53;;;2.03;;
79691;SDS011;69158;55.592;37.610;2023-04-29T15:24:00;6.65;;;2.03;;
79691;SDS011;69158;55.592;37.610;2023-04-29T15:26:47;7.88;;;2.05;;
79691;SDS011;69158;55.592;37.610;2023-04-29T15:29:33;7.43;;;2.33;;
79691;SDS011;69158;55.592;37.610;2023-04-29T15:32:23;7.63;;;2.15;;
79691;SDS011;69158;55.592;37.610;2023-04-29T15:35:15;4.50;;;1.30;;
79691;SDS011;69158;55.592;37.610;2023-04-29T15:38:01;5.72;;;1.63;;
79691;SDS011;69158;55.592;37.610;2023-04-29T15:40:48;8.13;;;1.52;;
79691;SDS011;69158;55.592;37.610;2023-04-29T15:43:34;7.95;;;1.60;;
79691;SDS011;69158;55.592;37.610;2023-04-29T15:46:21;6.65;;;1.42;;
79691;SDS011;69158;55.592;37.610;2023-04-29T15:49:07;7.47;;;1.48;;
79691;SDS011;69158;55.592;37.610;2023-04-29T15:51:53;7.25;;;1.30;;
79691;SDS011;69158;55.592;37.610;2023-04-29T15:54:39;4.85;;;1.10;;
79691;SDS011;69158;55.592;37.610;2023-04-29T15:57:25;9.68;;;1.60;;
79691;SDS011;69158;55.592;37.610;2023-04-29T16:00:11;5.55;;;1.35;;
79691;SDS011;69158;55.592;37.610;2023-04-29T16:02:58;7.05;;;1.85;;
79691;SDS011;69158;55.592;37.610;2023-04-29T16:05:43;7.57;;;1.63;;
79691;SDS011;69158;55.592;37.610;2023-04-29T16:08:29;5.78;;;1.67;;
79691;SDS011;69158;55.592;37.610;2023-04-29T16:11:15;9.10;;;2.22;;
79691;SDS011;69158;55.592;37.610;2023-04-29T16:14:01;6.40;;;2.10;;
79691;SDS011;69158;55.592;37.610;2023-04-29T16:16:47;6.28;;;1.70;;
79691;SDS011;69158;55.592;37.610;2023-04-29T16:19:33;12.73;;;3.50;;
79691;SDS011;69158;55.592;37.610;2023-04-29T16:22:19;7.57;;;2.90;;
79691;SDS011;69158;55.592;37.610;2023-04-29T16:25:06;8.95;;;2.70;;
79691;SDS011;69158;55.592;37.610;2023-04-29T16:27:53;8.43;;;2.42;;
79691;SDS011;69158;55.592;37.610;2023-04-29T16:30:39;8.00;;;2.33;;
79691;SDS011;69158;55.592;37.610;2023-04-29T16:33:25;10.20;;;3.25;;
79691;SDS011;69158;55.592;37.610;2023-04-29T16:36:11;11.07;;;3.70;;
79691;SDS011;69158;55.592;37.610;2023-04-29T16:38:58;8.55;;;4.45;;
79691;SDS011;69158;55.592;37.610;2023-04-29T16:41:44;16.10;;;3.05;;
79691;SDS011;69158;55.592;37.610;2023-04-29T16:44:30;8.35;;;2.67;;
79691;SDS011;69158;55.592;37.610;2023-04-29T16:47:16;8.73;;;4.65;;
79691;SDS011;69158;55.592;37.610;2023-04-29T16:50:04;8.52;;;2.72;;
79691;SDS011;69158;55.592;37.610;2023-04-29T16:52:53;10.75;;;3.20;;
79691;SDS011;69158;55.592;37.610;2023-04-29T16:55:39;8.82;;;2.80;;
79691;SDS011;69158;55.592;37.610;2023-04-29T16:58:25;13.98;;;5.07;;
79691;SDS011;69158;55.592;37.610;2023-04-29T17:01:11;13.82;;;5.43;;
79691;SDS011;69158;55.592;37.610;2023-04-29T17:03:57;12.90;;;5.25;;
79691;SDS011;69158;55.592;37.610;2023-04-29T17:06:43;12.63;;;5.35;;